JAL2309 RJOO-RJOM
Flight info
| Callsign | JAL2309 |
|---|---|
| Flight time | 0h 35m |
| Altitude | 18000 |
| Route | TIGER SUMAR AYAME SETOH ONOPA WASYU Y28 BAMBO Y283 ITUKI |
| Aircraft | E170/M-SDE3GILORVW/S |
Departure
| Time | 2026-05-05 07:38 |
|---|---|
| Airport | Osaka Itami International Airport (RJOO) |
Arrival
| Time | 2026-05-05 08:14 |
|---|---|
| Airport | Matsuyama Airport (RJOM) |
| Time | Latitude | Longitude | Altitude | Speed | Heading |
|---|---|---|---|---|---|
| 2026-05-05 07:22 | 34.79212 | 135.43649 | 46 ft | 0 kts | 177° |
| 2026-05-05 07:35 | 34.79211 | 135.43649 | 43 ft | 1 kts | 179° |
| 2026-05-05 07:35 | 34.79189 | 135.43639 | 46 ft | 6 kts | 213° |
| 2026-05-05 07:35 | 34.79141 | 135.43596 | 42 ft | 10 kts | 212° |
| 2026-05-05 07:35 | 34.79064 | 135.43610 | 45 ft | 14 kts | 140° |
| 2026-05-05 07:36 | 34.78988 | 135.43701 | 46 ft | 17 kts | 136° |
| 2026-05-05 07:36 | 34.78893 | 135.43818 | 44 ft | 22 kts | 135° |
| 2026-05-05 07:36 | 34.78771 | 135.43964 | 46 ft | 26 kts | 135° |
| 2026-05-05 07:36 | 34.78637 | 135.44128 | 43 ft | 28 kts | 135° |
| 2026-05-05 07:37 | 34.78509 | 135.44283 | 43 ft | 19 kts | 134° |
| 2026-05-05 07:37 | 34.78419 | 135.44336 | 47 ft | 16 kts | 182° |
| 2026-05-05 07:37 | 34.78357 | 135.44291 | 48 ft | 10 kts | 284° |
| 2026-05-05 07:37 | 34.78397 | 135.44234 | 45 ft | 12 kts | 316° |
| 2026-05-05 07:38 | 34.78654 | 135.43926 | 47 ft | 94 kts | 314° |
| 2026-05-05 07:38 | 34.79297 | 135.43136 | 65 ft | 164 kts | 315° |
| 2026-05-05 07:38 | 34.80146 | 135.42112 | 761 ft | 178 kts | 314° |
| 2026-05-05 07:38 | 34.80708 | 135.40817 | 1761 ft | 176 kts | 275° |
| 2026-05-05 07:39 | 34.80432 | 135.39378 | 2518 ft | 184 kts | 235° |
| 2026-05-05 07:39 | 34.79456 | 135.38381 | 3135 ft | 193 kts | 200° |
| 2026-05-05 07:39 | 34.78094 | 135.38313 | 3685 ft | 205 kts | 163° |
| 2026-05-05 07:39 | 34.76694 | 135.38839 | 4336 ft | 215 kts | 162° |
| 2026-05-05 07:40 | 34.75184 | 135.38999 | 4971 ft | 225 kts | 190° |
| 2026-05-05 07:40 | 34.73679 | 135.38421 | 5667 ft | 228 kts | 195° |
| 2026-05-05 07:40 | 34.72140 | 135.37911 | 6352 ft | 231 kts | 194° |
| 2026-05-05 07:40 | 34.70577 | 135.37412 | 6973 ft | 234 kts | 194° |
| 2026-05-05 07:41 | 34.68980 | 135.36913 | 7586 ft | 238 kts | 194° |
| 2026-05-05 07:41 | 34.67492 | 135.36019 | 8146 ft | 244 kts | 221° |
| 2026-05-05 07:41 | 34.66596 | 135.34268 | 8743 ft | 250 kts | 252° |
| 2026-05-05 07:41 | 34.66504 | 135.32151 | 9342 ft | 254 kts | 273° |
| 2026-05-05 07:42 | 34.66660 | 135.30013 | 9893 ft | 256 kts | 269° |
| 2026-05-05 07:42 | 34.66782 | 135.27841 | 10375 ft | 260 kts | 277° |
| 2026-05-05 07:42 | 34.67082 | 135.25637 | 10915 ft | 272 kts | 278° |
| 2026-05-05 07:42 | 34.67385 | 135.23269 | 11045 ft | 301 kts | 277° |
| 2026-05-05 07:43 | 34.67693 | 135.20653 | 11260 ft | 324 kts | 276° |
| 2026-05-05 07:43 | 34.68014 | 135.17844 | 11507 ft | 344 kts | 276° |
| 2026-05-05 07:43 | 34.68491 | 135.14954 | 12046 ft | 352 kts | 280° |
| 2026-05-05 07:43 | 34.69022 | 135.12037 | 12779 ft | 355 kts | 281° |
| 2026-05-05 07:44 | 34.69578 | 135.09105 | 13586 ft | 357 kts | 281° |
| 2026-05-05 07:44 | 34.70147 | 135.06159 | 14389 ft | 358 kts | 281° |
| 2026-05-05 07:44 | 34.70680 | 135.03206 | 15179 ft | 357 kts | 275° |
| 2026-05-05 07:44 | 34.70497 | 135.00228 | 15977 ft | 353 kts | 256° |
| 2026-05-05 07:45 | 34.69954 | 134.97312 | 16722 ft | 355 kts | 256° |
| 2026-05-05 07:45 | 34.69408 | 134.94375 | 17386 ft | 358 kts | 256° |
| 2026-05-05 07:45 | 34.68855 | 134.91404 | 18034 ft | 362 kts | 256° |
| 2026-05-05 07:45 | 34.68300 | 134.88441 | 18125 ft | 359 kts | 256° |
| 2026-05-05 07:46 | 34.67746 | 134.85544 | 18063 ft | 355 kts | 256° |
| 2026-05-05 07:46 | 34.67192 | 134.82633 | 18038 ft | 353 kts | 256° |
| 2026-05-05 07:46 | 34.66637 | 134.79724 | 18042 ft | 353 kts | 256° |
| 2026-05-05 07:46 | 34.66082 | 134.76819 | 18044 ft | 353 kts | 256° |
| 2026-05-05 07:47 | 34.65527 | 134.73912 | 18046 ft | 353 kts | 256° |
| 2026-05-05 07:47 | 34.64971 | 134.71013 | 18051 ft | 353 kts | 256° |
| 2026-05-05 07:47 | 34.64416 | 134.68111 | 18056 ft | 353 kts | 256° |
| 2026-05-05 07:47 | 34.63864 | 134.65233 | 18440 ft | 352 kts | 256° |
| 2026-05-05 07:48 | 34.63304 | 134.62310 | 18046 ft | 356 kts | 256° |
| 2026-05-05 07:48 | 34.62745 | 134.59422 | 18189 ft | 352 kts | 256° |
| 2026-05-05 07:48 | 34.62187 | 134.56524 | 18171 ft | 353 kts | 256° |
| 2026-05-05 07:48 | 34.61629 | 134.53629 | 18173 ft | 353 kts | 256° |
| 2026-05-05 07:49 | 34.61068 | 134.50727 | 18170 ft | 353 kts | 256° |
| 2026-05-05 07:49 | 34.60507 | 134.47830 | 18178 ft | 353 kts | 256° |
| 2026-05-05 07:49 | 34.59946 | 134.44933 | 18177 ft | 353 kts | 256° |
| 2026-05-05 07:49 | 34.59386 | 134.42036 | 18173 ft | 353 kts | 256° |
| 2026-05-05 07:50 | 34.58827 | 134.39132 | 18173 ft | 353 kts | 256° |
| 2026-05-05 07:50 | 34.58267 | 134.36240 | 18176 ft | 353 kts | 256° |
| 2026-05-05 07:50 | 34.57709 | 134.33351 | 18175 ft | 352 kts | 256° |
| 2026-05-05 07:50 | 34.57146 | 134.30449 | 18166 ft | 352 kts | 256° |
| 2026-05-05 07:51 | 34.56593 | 134.27591 | 18165 ft | 352 kts | 256° |
| 2026-05-05 07:51 | 34.56030 | 134.24700 | 18158 ft | 352 kts | 256° |
| 2026-05-05 07:51 | 34.55468 | 134.21806 | 18156 ft | 352 kts | 256° |
| 2026-05-05 07:51 | 34.54902 | 134.18906 | 18155 ft | 352 kts | 256° |
| 2026-05-05 07:52 | 34.54338 | 134.16010 | 18156 ft | 352 kts | 256° |
| 2026-05-05 07:52 | 34.53908 | 134.13095 | 18167 ft | 352 kts | 262° |
| 2026-05-05 07:52 | 34.53648 | 134.10219 | 18164 ft | 353 kts | 263° |
| 2026-05-05 07:52 | 34.53391 | 134.07260 | 18147 ft | 353 kts | 263° |
| 2026-05-05 07:53 | 34.53134 | 134.04299 | 18152 ft | 353 kts | 263° |
| 2026-05-05 07:53 | 34.52874 | 134.01337 | 18150 ft | 353 kts | 263° |
| 2026-05-05 07:53 | 34.52613 | 133.98376 | 18144 ft | 353 kts | 263° |
| 2026-05-05 07:53 | 34.52351 | 133.95419 | 18149 ft | 353 kts | 263° |
| 2026-05-05 07:54 | 34.52092 | 133.92497 | 18155 ft | 353 kts | 263° |
| 2026-05-05 07:54 | 34.51827 | 133.89539 | 18154 ft | 353 kts | 263° |
| 2026-05-05 07:54 | 34.51562 | 133.86581 | 18150 ft | 353 kts | 263° |
| 2026-05-05 07:54 | 34.51299 | 133.83623 | 18144 ft | 353 kts | 263° |
| 2026-05-05 07:55 | 34.51032 | 133.80664 | 18152 ft | 353 kts | 263° |
| 2026-05-05 07:55 | 34.50765 | 133.77707 | 18148 ft | 353 kts | 263° |
| 2026-05-05 07:55 | 34.50497 | 133.74753 | 18148 ft | 353 kts | 263° |
| 2026-05-05 07:55 | 34.50229 | 133.71799 | 18151 ft | 353 kts | 263° |
| 2026-05-05 07:56 | 34.49961 | 133.68844 | 18151 ft | 352 kts | 263° |
| 2026-05-05 07:56 | 34.49691 | 133.65890 | 18150 ft | 353 kts | 263° |
| 2026-05-05 07:56 | 34.49420 | 133.62937 | 18152 ft | 353 kts | 263° |
| 2026-05-05 07:56 | 34.49240 | 133.60982 | 18152 ft | 352 kts | 263° |
| 2026-05-05 07:57 | 34.48969 | 133.58029 | 18154 ft | 352 kts | 263° |
| 2026-05-05 07:57 | 34.48698 | 133.55076 | 18147 ft | 352 kts | 263° |
| 2026-05-05 07:57 | 34.48425 | 133.52121 | 18157 ft | 352 kts | 263° |
| 2026-05-05 07:57 | 34.48151 | 133.49173 | 18154 ft | 352 kts | 262° |
| 2026-05-05 07:58 | 34.47877 | 133.46224 | 18154 ft | 352 kts | 262° |
| 2026-05-05 07:58 | 34.47602 | 133.43277 | 18150 ft | 352 kts | 262° |
| 2026-05-05 07:58 | 34.47326 | 133.40324 | 18147 ft | 352 kts | 262° |
| 2026-05-05 07:58 | 34.46791 | 133.37441 | 18153 ft | 351 kts | 251° |
| 2026-05-05 07:59 | 34.45963 | 133.34659 | 18162 ft | 351 kts | 249° |
| 2026-05-05 07:59 | 34.45105 | 133.31892 | 18092 ft | 352 kts | 249° |
| 2026-05-05 07:59 | 34.44242 | 133.29117 | 17793 ft | 350 kts | 249° |
| 2026-05-05 07:59 | 34.43385 | 133.26365 | 17533 ft | 348 kts | 249° |
| 2026-05-05 08:00 | 34.42527 | 133.23617 | 17018 ft | 348 kts | 249° |
| 2026-05-05 08:00 | 34.41676 | 133.20887 | 16528 ft | 345 kts | 248° |
| 2026-05-05 08:00 | 34.40830 | 133.18179 | 16060 ft | 342 kts | 248° |
| 2026-05-05 08:00 | 34.39996 | 133.15523 | 15572 ft | 341 kts | 248° |
| 2026-05-05 08:01 | 34.39145 | 133.12858 | 15141 ft | 338 kts | 248° |
| 2026-05-05 08:01 | 34.38302 | 133.10217 | 14689 ft | 331 kts | 247° |
| 2026-05-05 08:01 | 34.37482 | 133.07652 | 14247 ft | 322 kts | 247° |
| 2026-05-05 08:01 | 34.36682 | 133.05149 | 13662 ft | 318 kts | 247° |
| 2026-05-05 08:02 | 34.35898 | 133.02689 | 13283 ft | 308 kts | 247° |
| 2026-05-05 08:02 | 34.35133 | 133.00296 | 12877 ft | 301 kts | 247° |
| 2026-05-05 08:02 | 34.34385 | 132.97957 | 12486 ft | 295 kts | 247° |
| 2026-05-05 08:02 | 34.33652 | 132.95667 | 12114 ft | 289 kts | 246° |
| 2026-05-05 08:03 | 34.32926 | 132.93405 | 11725 ft | 287 kts | 246° |
| 2026-05-05 08:03 | 34.32159 | 132.91186 | 11362 ft | 284 kts | 238° |
| 2026-05-05 08:03 | 34.30872 | 132.89420 | 11005 ft | 280 kts | 213° |
| 2026-05-05 08:03 | 34.29114 | 132.88445 | 10638 ft | 278 kts | 198° |
| 2026-05-05 08:04 | 34.27294 | 132.87726 | 10250 ft | 279 kts | 197° |
| 2026-05-05 08:04 | 34.25443 | 132.87011 | 9858 ft | 277 kts | 197° |
| 2026-05-05 08:04 | 34.23624 | 132.86290 | 9519 ft | 273 kts | 197° |
| 2026-05-05 08:04 | 34.21818 | 132.85564 | 9146 ft | 272 kts | 198° |
| 2026-05-05 08:05 | 34.20028 | 132.84837 | 8792 ft | 271 kts | 198° |
| 2026-05-05 08:05 | 34.18244 | 132.84103 | 8439 ft | 270 kts | 198° |
| 2026-05-05 08:05 | 34.16463 | 132.83381 | 8073 ft | 269 kts | 196° |
| 2026-05-05 08:05 | 34.14662 | 132.82778 | 7725 ft | 268 kts | 194° |
| 2026-05-05 08:06 | 34.12861 | 132.82204 | 7352 ft | 267 kts | 194° |
| 2026-05-05 08:06 | 34.11082 | 132.81620 | 7012 ft | 264 kts | 194° |
| 2026-05-05 08:06 | 34.09308 | 132.81037 | 6662 ft | 263 kts | 194° |
| 2026-05-05 08:06 | 34.07564 | 132.80400 | 6287 ft | 262 kts | 203° |
| 2026-05-05 08:07 | 34.06185 | 132.78990 | 5962 ft | 263 kts | 233° |
| 2026-05-05 08:07 | 34.05335 | 132.77026 | 5641 ft | 265 kts | 242° |
| 2026-05-05 08:07 | 34.04537 | 132.75047 | 5269 ft | 264 kts | 240° |
| 2026-05-05 08:07 | 34.03698 | 132.73096 | 4906 ft | 260 kts | 239° |
| 2026-05-05 08:08 | 34.02856 | 132.71191 | 4566 ft | 255 kts | 239° |
| 2026-05-05 08:08 | 34.02033 | 132.69359 | 4231 ft | 241 kts | 239° |
| 2026-05-05 08:08 | 34.01226 | 132.67644 | 3961 ft | 230 kts | 232° |
| 2026-05-05 08:08 | 34.00023 | 132.66495 | 3682 ft | 216 kts | 204° |
| 2026-05-05 08:09 | 33.98670 | 132.65831 | 3429 ft | 205 kts | 201° |
| 2026-05-05 08:09 | 33.97372 | 132.65207 | 3178 ft | 196 kts | 202° |
| 2026-05-05 08:09 | 33.96126 | 132.64601 | 2905 ft | 190 kts | 202° |
| 2026-05-05 08:09 | 33.94946 | 132.64009 | 2732 ft | 179 kts | 204° |
| 2026-05-05 08:10 | 33.93817 | 132.63416 | 2431 ft | 174 kts | 204° |
| 2026-05-05 08:10 | 33.92707 | 132.62833 | 2145 ft | 173 kts | 204° |
| 2026-05-05 08:10 | 33.91586 | 132.62387 | 1993 ft | 169 kts | 193° |
| 2026-05-05 08:10 | 33.90451 | 132.62252 | 1817 ft | 158 kts | 180° |
| 2026-05-05 08:11 | 33.89420 | 132.62408 | 1560 ft | 143 kts | 169° |
| 2026-05-05 08:11 | 33.88503 | 132.62770 | 1352 ft | 134 kts | 158° |
| 2026-05-05 08:11 | 33.87702 | 132.63296 | 1189 ft | 130 kts | 148° |
| 2026-05-05 08:11 | 33.86997 | 132.63971 | 1071 ft | 129 kts | 138° |
| 2026-05-05 08:12 | 33.86390 | 132.64769 | 973 ft | 130 kts | 132° |
| 2026-05-05 08:12 | 33.85806 | 132.65606 | 800 ft | 131 kts | 131° |
| 2026-05-05 08:12 | 33.85241 | 132.66454 | 583 ft | 129 kts | 130° |
| 2026-05-05 08:12 | 33.84673 | 132.67267 | 403 ft | 126 kts | 133° |
| 2026-05-05 08:13 | 33.84097 | 132.68062 | 244 ft | 126 kts | 134° |
| 2026-05-05 08:13 | 33.83514 | 132.68858 | 96 ft | 127 kts | 132° |
| 2026-05-05 08:13 | 33.82964 | 132.69622 | 24 ft | 104 kts | 131° |
| 2026-05-05 08:13 | 33.82616 | 132.70117 | 21 ft | 52 kts | 131° |
| 2026-05-05 08:14 | 33.82402 | 132.70408 | 22 ft | 45 kts | 134° |
| 2026-05-05 08:14 | 33.82310 | 132.70627 | 25 ft | 10 kts | 49° |
| 2026-05-05 08:14 | 33.82378 | 132.70670 | 24 ft | 14 kts | 28° |
| 2026-05-05 08:14 | 33.82458 | 132.70642 | 24 ft | 14 kts | 315° |
| 2026-05-05 08:15 | 33.82531 | 132.70539 | 23 ft | 18 kts | 310° |
| 2026-05-05 08:15 | 33.82620 | 132.70416 | 23 ft | 21 kts | 312° |
| 2026-05-05 08:15 | 33.82722 | 132.70279 | 23 ft | 17 kts | 308° |
| 2026-05-05 08:15 | 33.82768 | 132.70224 | 23 ft | 9 kts | 347° |
| 2026-05-05 08:16 | 33.82827 | 132.70260 | 23 ft | 9 kts | 42° |
| 2026-05-05 08:16 | 33.82872 | 132.70307 | 25 ft | 6 kts | 40° |
| 2026-05-05 08:16 | 33.82877 | 132.70313 | 24 ft | 0 kts | 40° |